首页
METAR-TAF:

METAR-TAF

机场 :

Bückeburg, 德国

纬度: 52-17N, 经度: 009-05E, 海拔: 70米

当前天气观测

该预报发布于55分钟前的20:20 UTC
风速9节,风向
温度 3°C
湿度 93%
气压 1001 hPa
能见度10公里或以上
少量云层高于2800英尺

METAR: ETHB 122020Z 18009KT 9999 FEW028 03/02 Q1001 BLU+BLU+

时间: 22:15 (21:15 UTC)

预报

该预报发布于3小时和52分钟前的17:23 UTC
预报有效从12日的 18点(UTC)到 13日的 03点(UTC)
风速10节,风向
能见度10公里或以上
少量云层高于2000英尺
多云层高于3500英尺
几率 30%
从 12日的 18点(UTC)到 12日的 20点(UTC)
风速12节,风向南转西南,有时为22节阵风
能見度: 5000
多云层高于2000英尺, 塔状积云.
小阵雨

TAF: ETHB 121723Z 1218/1303 19010KT 9999 NSW FEW020 BKN035 PROB30 1218/1220 21012G22KT 5000 -SHRA BKN020TCU

超过4000个机场的气象观测和天气预报(METAR&TAF报告)。

可查询的气象台以黄色和红色小点在地图上表示。

将鼠标移到小点上方,可查看气象台名称。

然后点击查看天气观测和预报。

如需切换地图:点击带黑十字的绿色按钮放大地图;点击带横线的绿色按钮缩小地图;或者点击绿色箭头查看邻近地区的地图。


METAR-TAF: